Michigan City, IN

1:18 AM CDT on September 17, 2014 (GMT -0500)
Coolspring Township on 400N | Change Station
CLOSE
Current Station
Personal Weather Station
Location: Michigan City, IN
Elevation: 643 ft
Nearby Weather Stations

Elev 643 ft 41.67 °N, 86.87 °W | Updated 9 seconds ago

Clear
Clear
44.5 °F
Feels Like 44 °F
N
0.0
Wind Variable Wind from NNE
Gusts 0.0 mph

Today
High -- | Low -- °F
--% Chance of Precip.
Yesterday
High -- | Low -- °F
Precip. -- in
6:29 AM 6:53 PM
Last Quarter, 39% visible
Pressure 30.10 in
Visibility 10.0 miles
Clouds Clear
Windchill 44 °F
Dew Point 43 °F
Humidity 96%
Rainfall 0.00 in
Snow Depth Not available.
UV 0 out of 12
Pollen 5.60 out of 12
Air Quality Not available.
Flu Activity Not available.
METAR KMGC 170555Z AUTO 00000KT 10SM CLR 07/07 A3010 RMK AO2

More Conditions Fewer Conditions

Pressure 30.10 in
Visibility 10.0 miles
Clouds Clear
Windchill 44 °F
Dew Point 43 °F
Humidity 96%
Rainfall 0.00 in
Snow Depth Not available.
UV 0 out of 12
Pollen 5.60 out of 12
Air Quality Not available.
Flu Activity Not available.
METAR KMGC 170555Z AUTO 00000KT 10SM CLR 07/07 A3010 RMK AO2

More Conditions Fewer Conditions

10-Day Weather Forecast

Almanac

Astronomy

Sep. 17, 2014 Rise Set
Actual Time 6:29 AM CDT 6:53 PM CDT
Civil Twilight 6:01 AM CDT 7:21 PM CDT
Nautical Twilight 5:29 AM CDT 7:53 PM CDT
Astronomical Twilight 4:55 AM CDT 8:27 PM CDT
Moon 12:25 AM CDT 3:06 PM CDT
Length of Visible Light 13h 19m
Length of Day
12h 23m
Tomorrow will be 2m 45s shorter.
Last Quarter, 39% of the Moon is Illuminated
Today
Last Quarter
Sep 24
New
Oct 1
First Quarter
Oct 8
Full
Oct 15
Last Quarter

Today's Extremes

State Highs State Lows

Community

WunderPhotos

Upload Photos

1,753,970 photos uploaded!

Nearby

Snow Depth

Station Depth Elevation
No new snow has been reported.

Earthquake Activity

City Distance Mag. Time & Date
No recent earthquake activity has been reported nearby.
Minimum magnitude displayed is 2.5.

Coastal Water Temperatures

Place Temperature
No Stations Reporting

Nearby Weather Stations